»·PEaware :: AAY2609 KSAN-KLAS

AAY2609 :: KSAN-KLAS

FLIGHT INFORMATION

Flight Status: Arrived
Operator:
Allegiant Air
More flights by this operator :: More flights under this callsign
Pilot: Luc P. (3613)
Aircraft: AIRBUS A319
(A319)
More flights by this aircraft type
Origin: KSAN San Diego Intl-Lindbergh
United States
Destination: KLAS McCarran Intl
United States
More flights between these airports :: More routes between these airports
Route: PADRZ2 CHKNN SEBBY YELAH MISEN KEPEC6
File this flight plan on PilotEdge
Remarks: PBN / A1B1C1D1O1S1 DOF / 200616 REG / N302NV SEL / ALHD OPR / AAY PER / C RMK / TCAS)
Altitude:
(Current/Filed)
33,000ft
Speed:
(Current/Filed)
432kts
Departed: 16-Jun-20 11:15 AM
Arrived: 16-Jun-20 12:16 PM
Distance/Time
Traveled:
225nm/1:01
Distance/Time
To Go:
Arrived

Flight Plot

Page will automatically refresh every two minutes.

Flight plan parsing failed; only flown route is shown


Map Options




Map Legend


Flown Route
Filed Route
Departure Airport
Arrival Airport
Navaid (VOR, NDB)
Fix

Horizontal Profiles

Position Reports

Time Latitude Longitude Heading Altitude Ground
Speed
16-Jun-20 10:45 32.733773 -117.198134 206 26ft 0kts
16-Jun-20 10:46 32.733773 -117.198134 206 26ft 0kts
16-Jun-20 10:47 32.733773 -117.198134 206 26ft 0kts
16-Jun-20 10:48 32.733773 -117.198134 206 26ft 0kts
16-Jun-20 10:49 32.733773 -117.198134 206 26ft 0kts
16-Jun-20 10:50 32.733773 -117.198134 206 26ft 0kts
16-Jun-20 10:51 32.733773 -117.198134 206 26ft 0kts
16-Jun-20 10:52 32.733773 -117.198134 206 26ft 0kts
16-Jun-20 10:53 32.733773 -117.198134 206 26ft 0kts
16-Jun-20 10:54 32.733773 -117.198134 206 26ft 0kts
16-Jun-20 10:55 32.733773 -117.198134 206 26ft 0kts
16-Jun-20 10:56 32.733773 -117.198134 206 26ft 0kts
16-Jun-20 10:57 32.733773 -117.198134 206 26ft 0kts
16-Jun-20 10:57 32.733773 -117.198134 206 26ft 0kts
16-Jun-20 10:59 32.733773 -117.198134 206 26ft 0kts
16-Jun-20 11:00 32.733773 -117.198134 206 26ft 0kts
16-Jun-20 11:00 32.733773 -117.198134 206 26ft 0kts
16-Jun-20 11:02 32.733773 -117.198134 206 26ft 0kts
16-Jun-20 11:02 32.733773 -117.198134 206 26ft 0kts
16-Jun-20 11:03 32.733773 -117.198133 206 26ft 0kts
16-Jun-20 11:04 32.733773 -117.198133 206 26ft 0kts
16-Jun-20 11:05 32.733795 -117.198121 206 26ft 1kts
16-Jun-20 11:06 32.734348 -117.197880 165 26ft 2kts
16-Jun-20 11:07 32.734596 -117.198192 99 26ft 0kts
16-Jun-20 11:08 32.734596 -117.198192 99 26ft 0kts
16-Jun-20 11:09 32.734587 -117.198141 102 26ft 1kts
16-Jun-20 11:10 32.733970 -117.195661 105 26ft 13kts
16-Jun-20 11:11 32.732625 -117.190106 106 26ft 20kts
16-Jun-20 11:12 32.730881 -117.182879 105 26ft 23kts
16-Jun-20 11:13 32.729473 -117.176965 91 26ft 13kts
16-Jun-20 11:14 32.731879 -117.182756 286 26ft 115kts
16-Jun-20 11:15 32.752436 -117.229095 300 2719ft 188kts
16-Jun-20 11:16 32.784671 -117.290552 301 5899ft 255kts
16-Jun-20 11:17 32.828327 -117.362161 306 10026ft 280kts
16-Jun-20 11:18 32.876604 -117.437008 305 13893ft 294kts
16-Jun-20 11:19 32.926907 -117.515228 306 14999ft 303kts
16-Jun-20 11:20 32.979086 -117.596541 306 18336ft 313kts
16-Jun-20 11:21 33.032840 -117.680634 306 21144ft 327kts
16-Jun-20 11:22 33.095287 -117.761373 318 23034ft 338kts
16-Jun-20 11:23 33.169336 -117.831905 336 24174ft 349kts
16-Jun-20 11:24 33.267024 -117.831209 1 26555ft 360kts
16-Jun-20 11:25 33.368102 -117.823997 0 28511ft 371kts
16-Jun-20 11:26 33.472142 -117.817212 0 30236ft 381kts
16-Jun-20 11:27 33.580405 -117.810216 0 31380ft 402kts
16-Jun-20 11:28 33.694267 -117.802809 0 32575ft 417kts
16-Jun-20 11:29 33.810901 -117.795209 0 33028ft 420kts
16-Jun-20 11:30 33.927040 -117.787688 0 33029ft 420kts
16-Jun-20 11:31 34.043109 -117.774147 12 33029ft 424kts
16-Jun-20 11:32 34.142828 -117.699703 44 33030ft 432kts
16-Jun-20 11:33 34.219442 -117.587739 47 33024ft 431kts
16-Jun-20 11:34 34.295401 -117.475820 46 33021ft 432kts
16-Jun-20 11:35 34.371603 -117.363605 46 33021ft 432kts
16-Jun-20 11:36 34.447594 -117.250947 47 33021ft 433kts
16-Jun-20 11:37 34.523654 -117.138153 47 33021ft 433kts
16-Jun-20 11:38 34.599731 -117.025090 47 33022ft 433kts
16-Jun-20 11:39 34.675966 -116.911470 47 32355ft 435kts
16-Jun-20 11:40 34.752503 -116.797033 47 31354ft 439kts
16-Jun-20 11:41 34.829539 -116.681917 45 29862ft 440kts
16-Jun-20 11:42 34.918251 -116.581658 33 27828ft 431kts
16-Jun-20 11:43 35.010240 -116.493092 33 25877ft 415kts
16-Jun-20 11:44 35.098399 -116.406401 36 23980ft 404kts
16-Jun-20 11:45 35.180332 -116.306372 42 23823ft 420kts
16-Jun-20 11:46 35.261228 -116.204422 41 22548ft 413kts
16-Jun-20 11:47 35.339477 -116.105900 41 20669ft 395kts
16-Jun-20 11:48 35.414553 -116.011176 41 18842ft 381kts
16-Jun-20 11:49 35.487091 -115.919453 42 17030ft 370kts
16-Jun-20 11:50 35.557679 -115.829930 43 15232ft 362kts
16-Jun-20 11:51 35.626873 -115.741910 44 13648ft 348kts
16-Jun-20 11:52 35.690461 -115.660747 44 12999ft 316kts
16-Jun-20 11:53 35.755968 -115.581622 25 12982ft 334kts
16-Jun-20 11:54 35.845107 -115.569970 357 12993ft 324kts
16-Jun-20 11:55 35.935053 -115.565356 358 12993ft 324kts
16-Jun-20 11:56 35.995996 -115.491479 72 12177ft 337kts
16-Jun-20 11:57 36.027247 -115.385997 76 11069ft 310kts
16-Jun-20 11:58 36.024835 -115.285647 99 10032ft 287kts
16-Jun-20 11:59 36.017663 -115.189504 97 8876ft 274kts
16-Jun-20 12:00 36.054406 -115.106741 51 8145ft 274kts
16-Jun-20 12:01 36.102779 -115.035423 51 7001ft 267kts
16-Jun-20 12:02 36.148148 -114.969793 51 6995ft 247kts
16-Jun-20 12:03 36.192579 -114.905844 51 6283ft 243kts
16-Jun-20 12:04 36.237004 -114.842162 51 6002ft 244kts
16-Jun-20 12:05 36.284357 -114.782166 18 5991ft 248kts
16-Jun-20 12:06 36.321248 -114.824908 247 6014ft 209kts
16-Jun-20 12:07 36.302436 -114.893245 247 6001ft 209kts
16-Jun-20 12:08 36.283951 -114.962067 247 5991ft 211kts
16-Jun-20 12:09 36.255240 -115.021968 213 5460ft 206kts
16-Jun-20 12:10 36.211103 -115.059232 213 4644ft 174kts
16-Jun-20 12:11 36.175048 -115.089937 213 3883ft 137kts
16-Jun-20 12:12 36.145415 -115.115140 214 3224ft 128kts
16-Jun-20 12:13 36.116347 -115.141011 215 2589ft 136kts
16-Jun-20 12:14 36.086903 -115.160214 205 2132ft 68kts
16-Jun-20 12:15 36.083259 -115.160096 22 2140ft 13kts
16-Jun-20 12:16 36.087565 -115.157416 69 2120ft 15kts
16-Jun-20 12:17 36.087879 -115.153622 90 2106ft 7kts
16-Jun-20 12:18 36.087326 -115.153341 202 2106ft 1kts
16-Jun-20 12:19 36.086971 -115.153256 162 2106ft 0kts

Navigation Log

Ident Type
Flight plan parsing failed, navigation log unavailable